sensor_id;sensor_type;location;lat;lon;timestamp;pressure;altitude;pressure_sealevel;temperature;humidity
22241;BME280;11289;52.524;13.694;2024-03-29T00:00:46;99200.44;;;8.60;66.62
22241;BME280;11289;52.524;13.694;2024-03-29T00:03:12;99199.53;;;8.56;67.36
22241;BME280;11289;52.524;13.694;2024-03-29T00:05:38;99209.41;;;8.57;67.14
22241;BME280;11289;52.524;13.694;2024-03-29T00:08:04;99203.00;;;8.52;67.58
22241;BME280;11289;52.524;13.694;2024-03-29T00:10:31;99200.47;;;8.47;67.93
22241;BME280;11289;52.524;13.694;2024-03-29T00:12:57;99216.81;;;8.52;67.88
22241;BME280;11289;52.524;13.694;2024-03-29T00:15:23;99214.38;;;8.51;68.46
22241;BME280;11289;52.524;13.694;2024-03-29T00:17:49;99217.97;;;8.51;68.13
22241;BME280;11289;52.524;13.694;2024-03-29T00:20:15;99210.38;;;8.48;68.03
22241;BME280;11289;52.524;13.694;2024-03-29T00:22:41;99216.69;;;8.49;68.35
22241;BME280;11289;52.524;13.694;2024-03-29T00:25:07;99218.09;;;8.43;68.39
22241;BME280;11289;52.524;13.694;2024-03-29T00:27:33;99241.25;;;8.50;68.73
22241;BME280;11289;52.524;13.694;2024-03-29T00:29:59;99224.56;;;8.47;68.45
22241;BME280;11289;52.524;13.694;2024-03-29T00:32:25;99225.72;;;8.46;68.75
22241;BME280;11289;52.524;13.694;2024-03-29T00:34:52;99237.34;;;8.51;68.83
22241;BME280;11289;52.524;13.694;2024-03-29T00:37:20;99244.47;;;8.52;68.83
22241;BME280;11289;52.524;13.694;2024-03-29T00:39:46;99238.25;;;8.56;68.95
22241;BME280;11289;52.524;13.694;2024-03-29T00:42:12;99236.63;;;8.54;68.88
22241;BME280;11289;52.524;13.694;2024-03-29T00:44:41;99247.00;;;8.58;69.57
22241;BME280;11289;52.524;13.694;2024-03-29T00:47:07;99239.75;;;8.53;70.05
22241;BME280;11289;52.524;13.694;2024-03-29T00:49:33;99253.66;;;8.57;69.98
22241;BME280;11289;52.524;13.694;2024-03-29T00:52:00;99253.66;;;8.57;70.10
22241;BME280;11289;52.524;13.694;2024-03-29T00:54:26;99272.00;;;8.61;70.11
22241;BME280;11289;52.524;13.694;2024-03-29T00:56:52;99273.84;;;8.57;69.35
22241;BME280;11289;52.524;13.694;2024-03-29T00:59:18;99274.44;;;8.50;69.42
22241;BME280;11289;52.524;13.694;2024-03-29T01:01:44;99276.84;;;8.52;69.90
22241;BME280;11289;52.524;13.694;2024-03-29T01:04:11;99271.09;;;8.45;69.69
22241;BME280;11289;52.524;13.694;2024-03-29T01:06:37;99284.47;;;8.43;70.30
22241;BME280;11289;52.524;13.694;2024-03-29T01:09:04;99260.16;;;8.36;71.16
22241;BME280;11289;52.524;13.694;2024-03-29T01:11:30;99280.19;;;8.33;71.23
22241;BME280;11289;52.524;13.694;2024-03-29T01:13:57;99273.41;;;8.30;71.66
22241;BME280;11289;52.524;13.694;2024-03-29T01:16:23;99261.69;;;8.21;71.64
22241;BME280;11289;52.524;13.694;2024-03-29T01:18:49;99265.50;;;8.16;72.25
22241;BME280;11289;52.524;13.694;2024-03-29T01:21:15;99272.84;;;8.12;72.71
22241;BME280;11289;52.524;13.694;2024-03-29T01:23:41;99266.19;;;8.01;73.23
22241;BME280;11289;52.524;13.694;2024-03-29T01:26:07;99274.47;;;8.01;73.28
22241;BME280;11289;52.524;13.694;2024-03-29T01:28:52;99273.09;;;7.95;73.74
22241;BME280;11289;52.524;13.694;2024-03-29T01:31:18;99269.75;;;7.89;74.12
22241;BME280;11289;52.524;13.694;2024-03-29T01:33:43;99262.16;;;7.86;74.17
22241;BME280;11289;52.524;13.694;2024-03-29T01:36:09;99266.06;;;7.85;74.65
22241;BME280;11289;52.524;13.694;2024-03-29T01:38:36;99274.25;;;7.81;74.78
22241;BME280;11289;52.524;13.694;2024-03-29T01:41:02;99273.66;;;7.76;75.66
22241;BME280;11289;52.524;13.694;2024-03-29T01:43:28;99276.78;;;7.74;75.21
22241;BME280;11289;52.524;13.694;2024-03-29T01:45:55;99271.47;;;7.69;75.58
22241;BME280;11289;52.524;13.694;2024-03-29T01:48:25;99277.34;;;7.67;75.91
22241;BME280;11289;52.524;13.694;2024-03-29T01:50:56;99276.41;;;7.63;75.93
22241;BME280;11289;52.524;13.694;2024-03-29T01:53:23;99274.00;;;7.62;76.61
22241;BME280;11289;52.524;13.694;2024-03-29T01:55:50;99279.75;;;7.57;77.00
22241;BME280;11289;52.524;13.694;2024-03-29T01:58:18;99278.81;;;7.53;76.86
22241;BME280;11289;52.524;13.694;2024-03-29T02:00:51;99273.50;;;7.47;77.43
22241;BME280;11289;52.524;13.694;2024-03-29T02:03:17;99269.81;;;7.43;77.52
22241;BME280;11289;52.524;13.694;2024-03-29T02:05:43;99276.50;;;7.42;76.99
22241;BME280;11289;52.524;13.694;2024-03-29T02:08:11;99274.75;;;7.38;77.27
22241;BME280;11289;52.524;13.694;2024-03-29T02:10:37;99270.72;;;7.35;77.51
22241;BME280;11289;52.524;13.694;2024-03-29T02:13:03;99267.50;;;7.33;77.91
22241;BME280;11289;52.524;13.694;2024-03-29T02:15:32;99283.13;;;7.29;78.02
22241;BME280;11289;52.524;13.694;2024-03-29T02:17:58;99282.66;;;7.27;78.24
22241;BME280;11289;52.524;13.694;2024-03-29T02:20:24;99289.31;;;7.26;77.97
22241;BME280;11289;52.524;13.694;2024-03-29T02:22:58;99292.31;;;7.21;78.25
22241;BME280;11289;52.524;13.694;2024-03-29T02:25:25;99292.19;;;7.17;78.48
22241;BME280;11289;52.524;13.694;2024-03-29T02:27:51;99287.22;;;7.10;78.51
22241;BME280;11289;52.524;13.694;2024-03-29T02:30:18;99283.97;;;7.08;78.39
22241;BME280;11289;52.524;13.694;2024-03-29T02:32:44;99292.06;;;7.13;78.20
22241;BME280;11289;52.524;13.694;2024-03-29T02:35:10;99294.69;;;7.10;78.19
22241;BME280;11289;52.524;13.694;2024-03-29T02:37:36;99283.97;;;7.08;78.71
22241;BME280;11289;52.524;13.694;2024-03-29T02:40:03;99299.59;;;7.04;78.49
22241;BME280;11289;52.524;13.694;2024-03-29T02:42:29;99295.25;;;7.03;78.75
22241;BME280;11289;52.524;13.694;2024-03-29T02:44:55;99304.56;;;6.99;78.37
22241;BME280;11289;52.524;13.694;2024-03-29T02:47:23;99302.44;;;6.95;78.69
22241;BME280;11289;52.524;13.694;2024-03-29T02:49:49;99309.47;;;6.93;78.74
22241;BME280;11289;52.524;13.694;2024-03-29T02:52:15;99308.19;;;6.90;78.89
22241;BME280;11289;52.524;13.694;2024-03-29T02:54:45;99310.00;;;6.86;78.82
22241;BME280;11289;52.524;13.694;2024-03-29T02:57:10;99309.88;;;6.83;78.87
22241;BME280;11289;52.524;13.694;2024-03-29T02:59:36;99290.75;;;6.77;78.89
22241;BME280;11289;52.524;13.694;2024-03-29T03:02:04;99301.44;;;6.79;79.35
22241;BME280;11289;52.524;13.694;2024-03-29T03:04:30;99303.16;;;6.71;78.98
22241;BME280;11289;52.524;13.694;2024-03-29T03:06:56;99300.72;;;6.70;79.53
22241;BME280;11289;52.524;13.694;2024-03-29T03:09:42;99304.97;;;6.67;79.17
22241;BME280;11289;52.524;13.694;2024-03-29T03:12:26;99310.00;;;6.65;79.49
22241;BME280;11289;52.524;13.694;2024-03-29T03:14:52;99319.28;;;6.60;79.27
22241;BME280;11289;52.524;13.694;2024-03-29T03:17:18;99323.19;;;6.59;79.60
22241;BME280;11289;52.524;13.694;2024-03-29T03:19:44;99318.00;;;6.58;79.36
22241;BME280;11289;52.524;13.694;2024-03-29T03:22:10;99331.66;;;6.54;79.48
22241;BME280;11289;52.524;13.694;2024-03-29T03:24:36;99337.50;;;6.53;80.14
22241;BME280;11289;52.524;13.694;2024-03-29T03:27:02;99327.94;;;6.50;79.20
22241;BME280;11289;52.524;13.694;2024-03-29T03:29:29;99334.63;;;6.49;79.74
22241;BME280;11289;52.524;13.694;2024-03-29T03:31:55;99336.88;;;6.47;79.54
22241;BME280;11289;52.524;13.694;2024-03-29T03:34:21;99329.63;;;6.42;79.62
22241;BME280;11289;52.524;13.694;2024-03-29T03:36:47;99342.91;;;6.40;79.62
22241;BME280;11289;52.524;13.694;2024-03-29T03:39:12;99339.03;;;6.41;79.36
22241;BME280;11289;52.524;13.694;2024-03-29T03:41:38;99342.91;;;6.40;79.21
22241;BME280;11289;52.524;13.694;2024-03-29T03:44:04;99353.81;;;6.37;79.41
22241;BME280;11289;52.524;13.694;2024-03-29T03:46:30;99359.34;;;6.37;79.19
22241;BME280;11289;52.524;13.694;2024-03-29T03:48:56;99355.63;;;6.33;79.08
22241;BME280;11289;52.524;13.694;2024-03-29T03:51:22;99348.34;;;6.28;79.20
22241;BME280;11289;52.524;13.694;2024-03-29T03:53:48;99352.72;;;6.29;79.21
22241;BME280;11289;52.524;13.694;2024-03-29T03:56:14;99338.34;;;6.23;79.46
22241;BME280;11289;52.524;13.694;2024-03-29T03:58:40;99349.34;;;6.23;79.27
22241;BME280;11289;52.524;13.694;2024-03-29T04:01:06;99346.09;;;6.21;79.31
22241;BME280;11289;52.524;13.694;2024-03-29T04:03:32;99332.19;;;6.18;78.88
22241;BME280;11289;52.524;13.694;2024-03-29T04:06:03;99332.66;;;6.20;79.03
22241;BME280;11289;52.524;13.694;2024-03-29T04:08:28;99333.00;;;6.18;78.88
22241;BME280;11289;52.524;13.694;2024-03-29T04:10:54;99348.25;;;6.16;79.21
22241;BME280;11289;52.524;13.694;2024-03-29T04:13:20;99331.91;;;6.10;79.09
22241;BME280;11289;52.524;13.694;2024-03-29T04:15:46;99329.16;;;6.10;79.04
22241;BME280;11289;52.524;13.694;2024-03-29T04:18:12;99324.31;;;6.07;79.04
22241;BME280;11289;52.524;13.694;2024-03-29T04:20:38;99335.78;;;6.09;78.78
22241;BME280;11289;52.524;13.694;2024-03-29T04:23:05;99326.25;;;6.07;78.90
22241;BME280;11289;52.524;13.694;2024-03-29T04:25:31;99330.16;;;6.06;78.60
22241;BME280;11289;52.524;13.694;2024-03-29T04:27:58;99336.97;;;6.08;78.31
22241;BME280;11289;52.524;13.694;2024-03-29T04:30:24;99339.56;;;6.05;78.02
22241;BME280;11289;52.524;13.694;2024-03-29T04:32:50;99347.69;;;6.01;78.35
22241;BME280;11289;52.524;13.694;2024-03-29T04:35:16;99340.22;;;6.02;78.38
22241;BME280;11289;52.524;13.694;2024-03-29T04:37:42;99332.44;;;5.95;78.23
22241;BME280;11289;52.524;13.694;2024-03-29T04:40:08;99337.94;;;5.95;78.53
22241;BME280;11289;52.524;13.694;2024-03-29T04:42:34;99329.53;;;5.91;78.60
22241;BME280;11289;52.524;13.694;2024-03-29T04:45:00;99321.59;;;5.90;78.92
22241;BME280;11289;52.524;13.694;2024-03-29T04:47:26;99329.88;;;5.90;79.18
22241;BME280;11289;52.524;13.694;2024-03-29T04:49:52;99333.13;;;5.83;79.12
22241;BME280;11289;52.524;13.694;2024-03-29T04:52:18;99338.31;;;5.85;79.64
22241;BME280;11289;52.524;13.694;2024-03-29T04:54:44;99336.69;;;5.84;79.78
22241;BME280;11289;52.524;13.694;2024-03-29T04:57:10;99333.78;;;5.80;79.25
22241;BME280;11289;52.524;13.694;2024-03-29T04:59:38;99335.53;;;5.85;79.75
22241;BME280;11289;52.524;13.694;2024-03-29T05:02:06;99338.16;;;5.81;80.32
22241;BME280;11289;52.524;13.694;2024-03-29T05:04:32;99332.16;;;5.79;80.40
22241;BME280;11289;52.524;13.694;2024-03-29T05:06:58;99330.38;;;5.83;79.82
22241;BME280;11289;52.524;13.694;2024-03-29T05:09:25;99337.34;;;5.81;80.08
22241;BME280;11289;52.524;13.694;2024-03-29T05:11:51;99331.84;;;5.81;80.49
22241;BME280;11289;52.524;13.694;2024-03-29T05:14:20;99332.34;;;5.83;80.54
22241;BME280;11289;52.524;13.694;2024-03-29T05:16:46;99332.78;;;5.85;80.20
22241;BME280;11289;52.524;13.694;2024-03-29T05:19:13;99351.75;;;5.86;80.23
22241;BME280;11289;52.524;13.694;2024-03-29T05:21:40;99347.53;;;5.89;80.03
22241;BME280;11289;52.524;13.694;2024-03-29T05:24:06;99341.06;;;5.85;80.28
22241;BME280;11289;52.524;13.694;2024-03-29T05:26:32;99348.19;;;5.86;79.97
22241;BME280;11289;52.524;13.694;2024-03-29T05:28:58;99336.84;;;5.87;80.20
22241;BME280;11289;52.524;13.694;2024-03-29T05:31:25;99341.03;;;5.93;80.24
22241;BME280;11289;52.524;13.694;2024-03-29T05:33:52;99347.53;;;5.98;80.16
22241;BME280;11289;52.524;13.694;2024-03-29T05:36:18;99355.78;;;5.98;80.11
22241;BME280;11289;52.524;13.694;2024-03-29T05:38:45;99359.34;;;5.98;79.64
22241;BME280;11289;52.524;13.694;2024-03-29T05:41:11;99359.34;;;5.98;79.71
22241;BME280;11289;52.524;13.694;2024-03-29T05:43:40;99360.16;;;5.99;79.67
22241;BME280;11289;52.524;13.694;2024-03-29T05:46:06;99355.75;;;6.06;79.94
22241;BME280;11289;52.524;13.694;2024-03-29T05:48:32;99349.56;;;6.09;79.37
22241;BME280;11289;52.524;13.694;2024-03-29T05:50:58;99336.97;;;6.08;79.63
22241;BME280;11289;52.524;13.694;2024-03-29T05:53:24;99337.56;;;6.14;79.12
22241;BME280;11289;52.524;13.694;2024-03-29T05:55:50;99334.00;;;6.14;78.88
22241;BME280;11289;52.524;13.694;2024-03-29T05:58:16;99343.69;;;6.20;78.96
22241;BME280;11289;52.524;13.694;2024-03-29T06:00:46;99349.81;;;6.25;78.83
22241;BME280;11289;52.524;13.694;2024-03-29T06:03:12;99355.00;;;6.27;78.32
22241;BME280;11289;52.524;13.694;2024-03-29T06:05:40;99364.22;;;6.31;78.08
22241;BME280;11289;52.524;13.694;2024-03-29T06:08:07;99346.25;;;6.25;78.13
22241;BME280;11289;52.524;13.694;2024-03-29T06:10:33;99363.72;;;6.38;78.58
22241;BME280;11289;52.524;13.694;2024-03-29T06:12:59;99356.06;;;6.43;78.24
22241;BME280;11289;52.524;13.694;2024-03-29T06:15:32;99374.47;;;6.52;77.63
22241;BME280;11289;52.524;13.694;2024-03-29T06:18:17;99371.72;;;6.52;77.51
22241;BME280;11289;52.524;13.694;2024-03-29T06:20:47;99374.63;;;6.55;78.28
22241;BME280;11289;52.524;13.694;2024-03-29T06:23:14;99378.81;;;6.61;78.01
22241;BME280;11289;52.524;13.694;2024-03-29T06:25:40;99378.13;;;6.65;77.20
22241;BME280;11289;52.524;13.694;2024-03-29T06:28:06;99371.63;;;6.69;76.66
22241;BME280;11289;52.524;13.694;2024-03-29T06:30:32;99390.53;;;6.79;76.79
22241;BME280;11289;52.524;13.694;2024-03-29T06:32:58;99380.94;;;6.86;77.04
22241;BME280;11289;52.524;13.694;2024-03-29T06:35:26;99386.56;;;6.89;76.47
22241;BME280;11289;52.524;13.694;2024-03-29T06:37:52;99386.38;;;6.94;75.31
22241;BME280;11289;52.524;13.694;2024-03-29T06:40:18;99391.34;;;7.01;74.65
22241;BME280;11289;52.524;13.694;2024-03-29T06:42:44;99399.91;;;7.08;75.10
22241;BME280;11289;52.524;13.694;2024-03-29T06:45:10;99406.50;;;7.16;74.16
22241;BME280;11289;52.524;13.694;2024-03-29T06:47:36;99399.63;;;7.22;75.16
22241;BME280;11289;52.524;13.694;2024-03-29T06:50:02;99392.41;;;7.30;73.71
22241;BME280;11289;52.524;13.694;2024-03-29T06:52:28;99395.78;;;7.36;73.77
22241;BME280;11289;52.524;13.694;2024-03-29T06:54:54;99416.66;;;7.45;73.50
22241;BME280;11289;52.524;13.694;2024-03-29T06:57:20;99421.28;;;7.54;73.14
22241;BME280;11289;52.524;13.694;2024-03-29T06:59:51;99426.41;;;7.64;73.01
22241;BME280;11289;52.524;13.694;2024-03-29T07:02:17;99422.38;;;7.74;72.59
22241;BME280;11289;52.524;13.694;2024-03-29T07:04:43;99424.72;;;7.84;72.17
22241;BME280;11289;52.524;13.694;2024-03-29T07:07:09;99433.84;;;7.97;71.96
22241;BME280;11289;52.524;13.694;2024-03-29T07:09:35;99439.75;;;8.08;71.77
22241;BME280;11289;52.524;13.694;2024-03-29T07:12:01;99430.19;;;8.17;70.17
22241;BME280;11289;52.524;13.694;2024-03-29T07:14:27;99424.09;;;8.24;69.50
22241;BME280;11289;52.524;13.694;2024-03-29T07:16:54;99421.94;;;8.30;68.31
22241;BME280;11289;52.524;13.694;2024-03-29T07:19:21;99429.97;;;8.35;68.82
22241;BME280;11289;52.524;13.694;2024-03-29T07:21:48;99427.72;;;8.49;69.08
22241;BME280;11289;52.524;13.694;2024-03-29T07:24:14;99429.22;;;8.59;67.36
22241;BME280;11289;52.524;13.694;2024-03-29T07:26:40;99433.94;;;8.71;68.28
22241;BME280;11289;52.524;13.694;2024-03-29T07:29:06;99444.19;;;8.83;68.01
22241;BME280;11289;52.524;13.694;2024-03-29T07:31:33;99468.19;;;8.91;66.98
22241;BME280;11289;52.524;13.694;2024-03-29T07:33:59;99479.38;;;8.95;66.87
22241;BME280;11289;52.524;13.694;2024-03-29T07:36:26;99463.34;;;9.00;66.46
22241;BME280;11289;52.524;13.694;2024-03-29T07:39:00;99463.09;;;9.05;67.00
22241;BME280;11289;52.524;13.694;2024-03-29T07:41:26;99471.84;;;9.07;64.90
22241;BME280;11289;52.524;13.694;2024-03-29T07:43:54;99464.00;;;9.10;65.60
22241;BME280;11289;52.524;13.694;2024-03-29T07:46:42;99461.81;;;9.15;65.66
22241;BME280;11289;52.524;13.694;2024-03-29T07:49:08;99473.56;;;9.24;65.02
22241;BME280;11289;52.524;13.694;2024-03-29T07:51:34;99477.59;;;9.27;64.62
22241;BME280;11289;52.524;13.694;2024-03-29T07:54:00;99468.13;;;9.28;63.35
22241;BME280;11289;52.524;13.694;2024-03-29T07:56:26;99471.47;;;9.34;63.79
22241;BME280;11289;52.524;13.694;2024-03-29T07:58:53;99468.34;;;9.35;63.20
22241;BME280;11289;52.524;13.694;2024-03-29T08:01:22;99475.69;;;9.44;63.81
22241;BME280;11289;52.524;13.694;2024-03-29T08:03:52;99475.56;;;9.52;64.06
22241;BME280;11289;52.524;13.694;2024-03-29T08:06:21;99476.13;;;9.58;63.80
22241;BME280;11289;52.524;13.694;2024-03-29T08:08:49;99498.50;;;9.65;62.40
22241;BME280;11289;52.524;13.694;2024-03-29T08:11:16;99493.06;;;9.69;62.78
22241;BME280;11289;52.524;13.694;2024-03-29T08:13:43;99499.03;;;9.71;62.82
22241;BME280;11289;52.524;13.694;2024-03-29T08:16:09;99497.19;;;9.75;61.16
22241;BME280;11289;52.524;13.694;2024-03-29T08:18:35;99507.56;;;9.78;61.48
22241;BME280;11289;52.524;13.694;2024-03-29T08:21:01;99497.19;;;9.75;61.46
22241;BME280;11289;52.524;13.694;2024-03-29T08:23:27;99507.56;;;9.78;61.70
22241;BME280;11289;52.524;13.694;2024-03-29T08:25:53;99498.53;;;9.81;61.20
22241;BME280;11289;52.524;13.694;2024-03-29T08:28:22;99512.59;;;9.88;60.52
22241;BME280;11289;52.524;13.694;2024-03-29T08:30:57;99507.78;;;9.85;60.43
22241;BME280;11289;52.524;13.694;2024-03-29T08:33:24;99507.84;;;9.89;61.37
22241;BME280;11289;52.524;13.694;2024-03-29T08:35:50;99505.19;;;9.92;60.81
22241;BME280;11289;52.524;13.694;2024-03-29T08:38:16;99498.59;;;9.97;60.82
22241;BME280;11289;52.524;13.694;2024-03-29T08:40:42;99502.63;;;10.00;61.49
22241;BME280;11289;52.524;13.694;2024-03-29T08:43:09;99495.66;;;10.06;61.92
22241;BME280;11289;52.524;13.694;2024-03-29T08:45:35;99492.19;;;10.09;62.02
22241;BME280;11289;52.524;13.694;2024-03-29T08:48:07;99489.50;;;10.13;62.42
22241;BME280;11289;52.524;13.694;2024-03-29T08:50:34;99431.63;;;10.11;62.82
22241;BME280;11289;52.524;13.694;2024-03-29T08:53:04;99437.63;;;10.13;65.01
22241;BME280;11289;52.524;13.694;2024-03-29T08:55:30;99427.78;;;10.16;62.94
22241;BME280;11289;52.524;13.694;2024-03-29T08:58:00;99438.41;;;10.14;65.31
22241;BME280;11289;52.524;13.694;2024-03-29T09:00:28;99447.28;;;10.19;66.15
22241;BME280;11289;52.524;13.694;2024-03-29T09:02:54;99470.91;;;10.29;65.94
22241;BME280;11289;52.524;13.694;2024-03-29T09:05:22;99472.41;;;10.39;66.13
22241;BME280;11289;52.524;13.694;2024-03-29T09:07:49;99474.53;;;10.45;65.28
22241;BME280;11289;52.524;13.694;2024-03-29T09:10:15;99469.16;;;10.53;65.25
22241;BME280;11289;52.524;13.694;2024-03-29T09:12:41;99461.84;;;10.60;64.55
22241;BME280;11289;52.524;13.694;2024-03-29T09:15:07;99475.97;;;10.71;64.60
22241;BME280;11289;52.524;13.694;2024-03-29T09:17:45;99473.91;;;10.84;63.78
22241;BME280;11289;52.524;13.694;2024-03-29T09:20:12;99478.91;;;10.94;62.62
22241;BME280;11289;52.524;13.694;2024-03-29T09:22:38;99494.84;;;10.97;61.70
22241;BME280;11289;52.524;13.694;2024-03-29T09:25:04;99494.72;;;11.10;61.01
22241;BME280;11289;52.524;13.694;2024-03-29T09:27:30;99504.13;;;11.21;60.03
22241;BME280;11289;52.524;13.694;2024-03-29T09:29:59;99493.03;;;11.41;60.67
22241;BME280;11289;52.524;13.694;2024-03-29T09:32:25;99499.34;;;11.57;60.01
22241;BME280;11289;52.524;13.694;2024-03-29T09:34:51;99484.78;;;11.64;58.65
22241;BME280;11289;52.524;13.694;2024-03-29T09:37:17;99486.25;;;11.77;58.66
22241;BME280;11289;52.524;13.694;2024-03-29T09:39:46;99483.69;;;11.88;58.52
22241;BME280;11289;52.524;13.694;2024-03-29T09:42:16;99478.44;;;12.02;57.56
22241;BME280;11289;52.524;13.694;2024-03-29T09:44:44;99471.16;;;12.17;57.44
22241;BME280;11289;52.524;13.694;2024-03-29T09:47:14;99480.66;;;12.16;56.60
22241;BME280;11289;52.524;13.694;2024-03-29T09:49:41;99492.31;;;12.22;57.23
22241;BME280;11289;52.524;13.694;2024-03-29T09:52:10;99488.53;;;12.34;56.09
22241;BME280;11289;52.524;13.694;2024-03-29T09:54:38;99492.56;;;12.36;53.63
22241;BME280;11289;52.524;13.694;2024-03-29T09:57:04;99488.75;;;12.45;53.41
22241;BME280;11289;52.524;13.694;2024-03-29T09:59:30;99490.03;;;12.51;51.92
22241;BME280;11289;52.524;13.694;2024-03-29T10:01:57;99496.16;;;12.60;52.33
22241;BME280;11289;52.524;13.694;2024-03-29T10:04:24;99515.03;;;12.70;52.13
22241;BME280;11289;52.524;13.694;2024-03-29T10:06:51;99497.03;;;12.64;50.90
22241;BME280;11289;52.524;13.694;2024-03-29T10:09:21;99487.81;;;12.60;51.53
22241;BME280;11289;52.524;13.694;2024-03-29T10:11:48;99487.06;;;12.63;51.70
22241;BME280;11289;52.524;13.694;2024-03-29T10:14:14;99481.44;;;12.60;51.46
22241;BME280;11289;52.524;13.694;2024-03-29T10:16:40;99479.06;;;12.62;52.01
22241;BME280;11289;52.524;13.694;2024-03-29T10:19:07;99472.03;;;12.68;52.14
22241;BME280;11289;52.524;13.694;2024-03-29T10:21:34;99477.78;;;12.79;51.45
22241;BME280;11289;52.524;13.694;2024-03-29T10:24:12;99489.78;;;12.83;51.29
22241;BME280;11289;52.524;13.694;2024-03-29T10:26:40;99477.09;;;12.85;52.12
22241;BME280;11289;52.524;13.694;2024-03-29T10:29:06;99482.22;;;12.83;52.03
22241;BME280;11289;52.524;13.694;2024-03-29T10:31:35;99471.41;;;12.78;52.24
22241;BME280;11289;52.524;13.694;2024-03-29T10:34:03;99476.22;;;12.81;51.87
22241;BME280;11289;52.524;13.694;2024-03-29T10:36:31;99454.25;;;12.76;51.53
22241;BME280;11289;52.524;13.694;2024-03-29T10:39:11;99466.63;;;12.79;52.83
22241;BME280;11289;52.524;13.694;2024-03-29T10:41:41;99469.75;;;12.74;54.47
22241;BME280;11289;52.524;13.694;2024-03-29T10:44:11;99479.53;;;12.64;55.02
22241;BME280;11289;52.524;13.694;2024-03-29T10:46:37;99453.78;;;12.47;56.01
22241;BME280;11289;52.524;13.694;2024-03-29T10:49:14;99451.31;;;12.42;57.12
22241;BME280;11289;52.524;13.694;2024-03-29T10:51:42;99435.66;;;12.34;58.01
22241;BME280;11289;52.524;13.694;2024-03-29T10:54:09;99441.19;;;12.30;58.71
22241;BME280;11289;52.524;13.694;2024-03-29T10:56:37;99440.25;;;12.23;58.40
22241;BME280;11289;52.524;13.694;2024-03-29T10:59:15;99456.09;;;12.18;58.83
22241;BME280;11289;52.524;13.694;2024-03-29T11:01:44;99444.09;;;12.14;59.59
22241;BME280;11289;52.524;13.694;2024-03-29T11:04:22;99441.66;;;12.13;61.38
22241;BME280;11289;52.524;13.694;2024-03-29T11:06:51;99448.78;;;12.33;62.89
22241;BME280;11289;52.524;13.694;2024-03-29T11:09:20;99436.16;;;12.63;63.30
22241;BME280;11289;52.524;13.694;2024-03-29T11:11:48;99423.03;;;12.90;61.53
22241;BME280;11289;52.524;13.694;2024-03-29T11:14:33;99388.63;;;13.05;58.90
22241;BME280;11289;52.524;13.694;2024-03-29T11:17:03;99385.00;;;13.32;58.31
22241;BME280;11289;52.524;13.694;2024-03-29T11:19:29;99378.50;;;13.51;56.96
22241;BME280;11289;52.524;13.694;2024-03-29T11:21:56;99359.47;;;13.60;56.38
22241;BME280;11289;52.524;13.694;2024-03-29T11:24:22;99359.59;;;13.71;56.24
22241;BME280;11289;52.524;13.694;2024-03-29T11:26:48;99368.44;;;13.80;56.63
22241;BME280;11289;52.524;13.694;2024-03-29T11:29:19;99359.19;;;14.14;55.90
22241;BME280;11289;52.524;13.694;2024-03-29T11:31:45;99357.38;;;14.36;53.71
22241;BME280;11289;52.524;13.694;2024-03-29T11:34:12;99349.44;;;14.41;53.63
22241;BME280;11289;52.524;13.694;2024-03-29T11:36:39;99340.28;;;14.41;53.02
22241;BME280;11289;52.524;13.694;2024-03-29T11:39:05;99347.44;;;14.42;52.57
22241;BME280;11289;52.524;13.694;2024-03-29T11:41:31;99339.44;;;14.37;52.75
22241;BME280;11289;52.524;13.694;2024-03-29T11:43:58;99344.19;;;14.33;51.97
22241;BME280;11289;52.524;13.694;2024-03-29T11:46:25;99354.47;;;14.21;52.56
22241;BME280;11289;52.524;13.694;2024-03-29T11:48:51;99345.63;;;14.12;52.82
22241;BME280;11289;52.524;13.694;2024-03-29T11:51:21;99346.78;;;14.07;52.49
22241;BME280;11289;52.524;13.694;2024-03-29T11:53:50;99356.25;;;13.99;52.40
22241;BME280;11289;52.524;13.694;2024-03-29T11:56:20;99343.94;;;14.00;53.02
22241;BME280;11289;52.524;13.694;2024-03-29T11:58:47;99353.13;;;14.04;53.75
22241;BME280;11289;52.524;13.694;2024-03-29T12:01:14;99361.53;;;14.08;53.82
22241;BME280;11289;52.524;13.694;2024-03-29T12:03:42;99361.88;;;14.03;51.62
22241;BME280;11289;52.524;13.694;2024-03-29T12:06:08;99361.84;;;13.99;52.97
22241;BME280;11289;52.524;13.694;2024-03-29T12:08:37;99378.50;;;13.92;52.59
22241;BME280;11289;52.524;13.694;2024-03-29T12:11:04;99381.22;;;13.81;54.21
22241;BME280;11289;52.524;13.694;2024-03-29T12:13:30;99382.25;;;13.69;54.32
22241;BME280;11289;52.524;13.694;2024-03-29T12:15:57;99379.75;;;13.57;54.94
22241;BME280;11289;52.524;13.694;2024-03-29T12:18:25;99395.97;;;13.48;55.74
22241;BME280;11289;52.524;13.694;2024-03-29T12:20:51;99389.56;;;13.44;56.89
22241;BME280;11289;52.524;13.694;2024-03-29T12:23:19;99385.94;;;13.43;56.77
22241;BME280;11289;52.524;13.694;2024-03-29T12:25:45;99388.72;;;13.43;56.69
22241;BME280;11289;52.524;13.694;2024-03-29T12:28:13;99399.56;;;13.48;57.23
22241;BME280;11289;52.524;13.694;2024-03-29T12:30:41;99383.22;;;13.47;56.33
22241;BME280;11289;52.524;13.694;2024-03-29T12:33:09;99390.50;;;13.55;55.87
22241;BME280;11289;52.524;13.694;2024-03-29T12:35:37;99373.47;;;13.64;55.81
22241;BME280;11289;52.524;13.694;2024-03-29T12:38:04;99362.31;;;13.67;54.26
22241;BME280;11289;52.524;13.694;2024-03-29T12:40:31;99332.97;;;13.81;53.20
22241;BME280;11289;52.524;13.694;2024-03-29T12:43:05;99311.16;;;13.90;52.89
22241;BME280;11289;52.524;13.694;2024-03-29T12:45:33;99304.88;;;14.04;53.26
22241;BME280;11289;52.524;13.694;2024-03-29T12:47:59;99305.38;;;14.17;52.62
22241;BME280;11289;52.524;13.694;2024-03-29T12:50:27;99305.50;;;14.31;51.77
22241;BME280;11289;52.524;13.694;2024-03-29T12:52:57;99304.75;;;14.41;50.04
22241;BME280;11289;52.524;13.694;2024-03-29T12:55:24;99304.47;;;14.57;49.42
22241;BME280;11289;52.524;13.694;2024-03-29T12:57:54;99302.25;;;14.88;49.60